Taylor Fork

This weather station provides wind speed, gust or max wind speed, and wind direction at 9460 ft. near Pika Point above Sunlight Basin.  

This data can be used with temperature and precipitation data from the Carrot Basin SNOTEL site. If the data below is not displayed or up to date, view data here.

This weather station was purchased by the Friends of the Avalanche Center.

Elevation
9460ft
Jump to table bottom
Date Time Temperature
deg F
RH, % Wind Speed Wind Gust Wind Direction
03/30/21 13:00 33.3 84 0 4 N - 11
03/30/21 12:00 25.7 92 4 29 N - 351
03/30/21 11:00 7.6 83 15 27 W - 257
03/30/21 10:00 5.9 87 15 26 W - 274
03/30/21 09:00 3.7 87 12 21 W - 275
03/30/21 08:00 2.5 87 7 16 NW - 303
03/30/21 07:00 2.2 87 8 17 W - 282
03/30/21 06:00 1.9 87 6 15 NW - 302
03/30/21 05:00 2.1 87 7 18 NW - 302
03/30/21 04:00 2.3 87 9 15 W - 277
03/30/21 03:00 2.4 87 13 22 W - 264
03/30/21 02:00 2.5 87 12 21 W - 271
03/30/21 01:00 2.5 87 12 26 W - 260
03/30/21 00:00 2.5 87 9 19 W - 256
03/29/21 23:00 2.6 85 7 18 W - 292
03/29/21 22:00 3.4 84 5 16 NW - 316
03/29/21 21:00 3.9 78 10 24 W - 285
03/29/21 20:00 3.5 86 5 17 NW - 317
03/29/21 19:00 3.8 83 10 21 NW - 305
03/29/21 18:00 3.8 82 12 21 NW - 295
03/29/21 17:00 5.2 73 19 32 W - 279
03/29/21 16:00 4.7 84 31 45 W - 264
03/29/21 15:00 6.2 78 24 41 W - 263
03/29/21 14:00 6.0 82 22 36 W - 275
03/29/21 13:00 5.7 86 22 37 W - 279
03/29/21 12:00 5.0 85 21 37 W - 277
03/29/21 11:00 4.9 82 25 42 W - 277
03/29/21 10:00 3.7 75 16 39 NW - 295
03/29/21 09:00 4.1 64 26 61 W - 292
03/29/21 08:00 4.2 66 32 60 W - 288
03/29/21 07:00 4.3 84 32 61 W - 292
03/29/21 06:00 7.3 88 30 57 W - 275
03/29/21 05:00 12.8 90 26 46 W - 288
03/29/21 04:00 27.3 63 35 57 SW - 232
03/29/21 03:00 28.2 65 35 62 SW - 223
03/29/21 02:00 28.1 68 30 57 SW - 206
03/29/21 01:00 28.9 70 38 71 S - 202
03/29/21 00:00 30.0 70 40 82 SW - 204
03/28/21 23:00 30.2 73 39 67 S - 199
03/28/21 22:00 30.9 70 34 61 SW - 206
03/28/21 21:00 31.4 69 31 59 SW - 206
03/28/21 20:00 32.2 64 32 56 S - 198
03/28/21 19:00 32.4 61 32 64 S - 192
03/28/21 18:00 33.5 58 30 56 S - 199
03/28/21 17:00 34.1 57 27 46 SW - 215
03/28/21 16:00 33.4 62 29 45 SW - 215
03/28/21 15:00 32.9 65 28 45 SW - 209
03/28/21 14:00 29.7 75 29 43 S - 201
03/28/21 13:00 30.0 64 26 39 SE - 157
03/28/21 12:00 28.1 68 21 38 SE - 128